DW1521 Ihtiman BG current weather conditions

sailwx.info

Wind from 169

Air temperature 6.1° C
Dewpoint 6.1° C

Last reported at 2019-Dec-12 23:45 UTC.
Time now 2019-Dec-13 00:45 UTC

Location: N 42°26' E 023°49'.
View on Google Maps.

See reports from other nearby stations

  
Tides and Currents Weather Stations Pressure Air Temp Water Temp Dewpoint Dewpoint Depression Visibility Wind Speed Wind Dir Waves Ship Positions
date/time (UTC)wind fromknots sea level pressurealtimeterstation pressurevisibilityair tempwater tempwave heightnotes
2019-Dec-12 23:45 169 6.1
2019-Dec-12 23:25 169 0 gusting 2 6.1
2019-Dec-12 23:20 172 2 gusting 4 6.1
2019-Dec-12 23:15 172 6.1
2019-Dec-12 23:10 164 1 gusting 5 6.1
2019-Dec-12 23:05 155 6.1
2019-Dec-12 23:00 155 0 gusting 4 6.1
2019-Dec-12 22:55 177 6.1
2019-Dec-12 22:50 189 0 gusting 2 6.1
2019-Dec-12 22:40 209 1 gusting 2 6.7
2019-Dec-12 22:35 168 6.7
2019-Dec-12 22:30 168 0 gusting 2 6.7
2019-Dec-12 22:25 168 0 gusting 2 6.7
2019-Dec-12 22:20 133 1 gusting 2 6.7
2019-Dec-12 22:10 164 1 gusting 5 6.7
2019-Dec-12 22:00 126 0 gusting 2 6.7
2019-Dec-12 21:51 120 4 gusting 6 6.7
2019-Dec-12 21:46 140 1 gusting 5 6.7
2019-Dec-12 21:36 128 1 gusting 5 6.7
2019-Dec-12 21:31 132 2 gusting 5 6.7
2019-Dec-12 21:26 134 1 gusting 5 6.7
2019-Dec-12 21:21 146 2 gusting 5 6.7
2019-Dec-12 21:11 133 3 gusting 8 6.7
2019-Dec-12 21:06 152 4 gusting 7 6.7
2019-Dec-12 21:01 171 5 gusting 7 6.7
2019-Dec-12 20:56 166 5 gusting 6 6.7
2019-Dec-12 20:51 180 6 gusting 7 6.7
2019-Dec-12 20:46 159 5 gusting 10 6.7
2019-Dec-12 20:41 152 3 gusting 6 6.7
2019-Dec-12 20:31 152 5 gusting 6 6.7
2019-Dec-12 20:26 154 2 gusting 5 6.7
2019-Dec-12 20:21 151 2 gusting 5 6.7
2019-Dec-12 20:16 150 2 gusting 5 6.7
2019-Dec-12 20:11 167 5 gusting 7 6.7
2019-Dec-12 20:06 172 4 gusting 7 6.7
2019-Dec-12 20:01 156 0 gusting 5 6.7
2019-Dec-12 19:46 130 5 gusting 8 6.7
2019-Dec-12 19:41 123 5 gusting 8 6.7
2019-Dec-12 19:36 127 3 gusting 6 6.7
2019-Dec-12 19:21 127 4 gusting 6 6.7
2019-Dec-12 19:01 095 2 gusting 5 6.7
2019-Dec-12 18:56 165 2 gusting 5 6.7
2019-Dec-12 18:51 122 1 gusting 5 6.7
2019-Dec-12 18:36 123 2 gusting 5 6.7
2019-Dec-12 18:31 123 1 gusting 4 6.7
2019-Dec-12 18:26 114 3 gusting 6 6.7
2019-Dec-12 18:21 150 1 gusting 2 6.7
2019-Dec-12 18:06 122 2 gusting 6 6.7
2019-Dec-12 18:01 138 1 gusting 5 6.7
2019-Dec-12 17:56 128 4 gusting 6 6.7
2019-Dec-12 17:51 109 2 gusting 5 6.7
2019-Dec-12 17:46 125 3 gusting 5 6.7
2019-Dec-12 17:36 113 2 gusting 5 6.7
2019-Dec-12 17:31 129 3 gusting 5 6.7
2019-Dec-12 17:26 123 2 gusting 5 6.7
2019-Dec-12 17:21 130 0 gusting 5 6.7
2019-Dec-12 17:06 157 2 gusting 6 6.7
2019-Dec-12 17:01 123 5 gusting 8 6.7
2019-Dec-12 16:56 085 1 gusting 6 6.7
2019-Dec-12 16:51 114 0 gusting 5 6.7
2019-Dec-12 16:46 129 4 gusting 6 6.7
2019-Dec-12 16:41 151 4 gusting 7 6.7
2019-Dec-12 16:36 122 5 gusting 6 6.7
2019-Dec-12 16:26 128 1 gusting 6 6.7
2019-Dec-12 16:21 125 3 gusting 10 6.7
2019-Dec-12 16:16 118 2 gusting 10 6.7
2019-Dec-12 16:11 120 2 gusting 5 6.7
2019-Dec-12 16:06 151 2 gusting 5 6.7
2019-Dec-12 16:01 122 4 gusting 6 6.7
2019-Dec-12 15:56 119 4 gusting 6 6.7
2019-Dec-12 15:41 162 6.7
2019-Dec-12 15:36 129 2 gusting 5 6.7
2019-Dec-12 15:31 125 0 gusting 2 6.7
2019-Dec-12 15:21 147 2 gusting 5 6.7
2019-Dec-12 15:16 123 3 gusting 7 6.7
2019-Dec-12 15:06 125 4 gusting 5 6.7
2019-Dec-12 15:01 118 3 gusting 5 6.7
2019-Dec-12 14:51 159 2 gusting 5 6.7
2019-Dec-12 14:41 117 2 gusting 6 6.7
2019-Dec-12 14:36 131 3 gusting 5 6.7
2019-Dec-12 14:31 143 2 gusting 5 6.7
2019-Dec-12 14:26 143 4 gusting 6 6.7
2019-Dec-12 14:21 122 3 gusting 7 6.7
2019-Dec-12 14:16 135 2 gusting 6 6.7
2019-Dec-12 14:11 125 3 gusting 5 6.7
2019-Dec-12 14:06 132 3 gusting 5 6.7
2019-Dec-12 14:01 134 0 gusting 6 6.7
2019-Dec-12 13:46 117 3 gusting 5 6.7
2019-Dec-12 13:36 120 2 gusting 4 6.7
2019-Dec-12 13:26 119 4 gusting 6 6.7
2019-Dec-12 13:21 124 4 gusting 5 6.7
2019-Dec-12 13:16 126 4 gusting 7 6.7
2019-Dec-12 13:11 138 4 gusting 10 6.7
2019-Dec-12 13:06 130 5 gusting 7 6.7
2019-Dec-12 13:01 114 2 gusting 7 6.7
2019-Dec-12 12:56 124 5 gusting 7 6.7
2019-Dec-12 12:36 126 4 gusting 5 6.7
2019-Dec-12 12:31 134 0 gusting 4 6.7
2019-Dec-12 12:21 166 2 gusting 5 6.7
2019-Dec-12 12:11 142 4 gusting 5 6.7
2019-Dec-12 12:06 162 4 gusting 6 6.7
2019-Dec-12 12:01 156 3 gusting 6 6.7
2019-Dec-12 11:56 143 4 gusting 5 6.7
2019-Dec-12 11:51 160 3 gusting 6 6.7
2019-Dec-12 11:46 157 3 gusting 7 6.7
2019-Dec-12 11:41 122 1 gusting 4 6.7
2019-Dec-12 11:31 131 1 gusting 5 6.7
2019-Dec-12 11:26 137 1 gusting 5 6.7
2019-Dec-12 11:16 169 2 gusting 5 6.7
2019-Dec-12 11:11 149 2 gusting 6 6.7
2019-Dec-12 11:01 151 3 gusting 7 6.7
2019-Dec-12 10:56 125 1 gusting 5 6.7
2019-Dec-12 10:51 131 3 gusting 5 6.7
2019-Dec-12 10:41 152 2 gusting 6 6.7
2019-Dec-12 10:36 148 4 gusting 6 6.7
2019-Dec-12 10:31 125 2 gusting 5 6.7
2019-Dec-12 10:26 135 2 gusting 6 6.7
2019-Dec-12 10:21 122 3 gusting 6 6.7
2019-Dec-12 10:16 123 4 gusting 6 6.1
2019-Dec-12 10:11 107 4 gusting 5 6.7
2019-Dec-12 10:06 132 2 gusting 5 6.7
2019-Dec-12 09:56 132 0 gusting 5 6.7
2019-Dec-12 09:51 071 1 gusting 2 6.1
2019-Dec-12 09:46 124 6.1
2019-Dec-12 09:41 130 6.1
2019-Dec-12 09:36 134 0 gusting 4 6.1
2019-Dec-12 09:26 120 2 gusting 6 6.1
2019-Dec-12 09:21 120 0 gusting 2 6.1
2019-Dec-12 09:16 163 2 gusting 5 6.1
2019-Dec-12 09:11 131 6.1
2019-Dec-12 09:06 119 1 gusting 4 6.1
2019-Dec-12 09:01 114 1 gusting 5 6.1
2019-Dec-12 08:56 122 3 gusting 6 6.1
2019-Dec-12 08:46 120 4 gusting 5 6.1
2019-Dec-12 08:41 116 4 gusting 5 6.1
2019-Dec-12 08:36 127 1 gusting 5 6.1
2019-Dec-12 08:31 134 2 gusting 5 6.1
2019-Dec-12 08:26 125 0 gusting 5 6.1
2019-Dec-12 08:21 124 2 gusting 5 6.1
2019-Dec-12 08:16 123 2 gusting 4 6.1
2019-Dec-12 08:06 117 2 gusting 5 6.1
2019-Dec-12 08:01 152 4 gusting 5 6.1
2019-Dec-12 07:51 123 3 gusting 5 5.6
2019-Dec-12 07:46 116 2 gusting 7 5.6
2019-Dec-12 07:41 121 1 gusting 6 5.6
2019-Dec-12 07:31 159 1 gusting 6 5.6
2019-Dec-12 07:21 132 2 gusting 5 5.6
2019-Dec-12 07:06 113 5 gusting 7 5.6
2019-Dec-12 07:01 120 4 gusting 7 5.6
2019-Dec-12 06:51 133 5 gusting 8 5.6
2019-Dec-12 06:41 132 2 gusting 7 5.6
2019-Dec-12 06:36 136 2 gusting 6 5.6
2019-Dec-12 06:31 110 2 gusting 4 5.6
2019-Dec-12 06:26 119 1 gusting 6 5.6
2019-Dec-12 06:21 120 1 gusting 6 5.6
2019-Dec-12 06:06 181 3 gusting 6 5.6
2019-Dec-12 05:56 133 1 gusting 5 5.6
2019-Dec-12 05:51 165 2 gusting 5 5.6
2019-Dec-12 05:46 148 2 gusting 5 5.6
2019-Dec-12 05:41 144 0 gusting 2 5.6
2019-Dec-12 05:36 170 3 gusting 5 5.6
2019-Dec-12 05:31 156 4 gusting 6 5.6
2019-Dec-12 05:26 151 1 gusting 5 5.6
2019-Dec-12 05:21 157 6 gusting 8 5.6
2019-Dec-12 05:11 133 5 gusting 10 5.6
2019-Dec-12 05:06 127 5 gusting 7 5.6
2019-Dec-12 05:01 127 4 gusting 7 5.6
2019-Dec-12 04:56 124 4 gusting 7 5.6
2019-Dec-12 04:51 136 4 gusting 7 5.6
2019-Dec-12 04:46 131 4 gusting 7 5.6
2019-Dec-12 04:36 148 4 gusting 6 5.6
2019-Dec-12 04:31 137 4 gusting 7 5.6
2019-Dec-12 04:26 124 4 gusting 7 5.6
2019-Dec-12 04:21 138 5 gusting 8 5.6
2019-Dec-12 04:11 144 3 gusting 7 5.6
2019-Dec-12 04:06 122 3 gusting 5 5.6
2019-Dec-12 04:01 134 4 gusting 6 5.6
2019-Dec-12 03:56 122 1 gusting 6 5.6
2019-Dec-12 03:51 129 4 gusting 6 5.6
2019-Dec-12 03:36 130 2 gusting 5 5.6
2019-Dec-12 03:31 124 5 gusting 6 5.6
2019-Dec-12 03:26 115 2 gusting 6 5.6
2019-Dec-12 03:21 136 3 gusting 6 5.6
2019-Dec-12 03:16 129 2 gusting 4 5.6
2019-Dec-12 03:11 125 4 gusting 6 5.6
2019-Dec-12 03:06 127 4 gusting 5 5.6
2019-Dec-12 02:51 120 4 gusting 5 5.6
2019-Dec-12 02:46 124 4 gusting 6 5.6
2019-Dec-12 02:41 120 4 gusting 6 5.6
2019-Dec-12 02:31 130 2 gusting 5 5.6
2019-Dec-12 02:26 115 4 gusting 6 5.6
2019-Dec-12 02:21 127 3 gusting 5 5.6
2019-Dec-12 02:11 135 3 gusting 6 5.6
2019-Dec-12 02:01 134 2 gusting 5 5.6
2019-Dec-12 01:56 130 2 gusting 5 5.6
2019-Dec-12 01:51 071 1 gusting 5 5.6
2019-Dec-12 01:46 114 1 gusting 6 5.6
2019-Dec-12 01:36 130 4 gusting 6 5.6
2019-Dec-12 01:31 133 5 gusting 7 5.6
2019-Dec-12 01:26 131 4 gusting 7 5.6
2019-Dec-12 01:21 125 4 gusting 6 5.6
2019-Dec-12 01:06 131 4 gusting 8 5.6
2019-Dec-12 00:56 129 5 gusting 7 5.6
2019-Dec-12 00:46 126 2 gusting 6 5.6
2019-Dec-12 00:41 104 2 gusting 5 5.6
2019-Dec-12 00:36 105 1 gusting 6 5.6
2019-Dec-12 00:31 117 4 gusting 8 5.6
2019-Dec-12 00:26 142 4 gusting 6 5.6
2019-Dec-12 00:21 117 2 gusting 5 5.6
2019-Dec-12 00:16 109 2 gusting 5 5.6
2019-Dec-11 23:56 125 5.6
2019-Dec-11 23:51 118 0 gusting 5 5.6
2019-Dec-11 23:46 122 0 gusting 2 5.6
2019-Dec-11 23:31 165 2 gusting 5 5.6
2019-Dec-11 23:26 161 1 gusting 2 5.6
2019-Dec-11 23:21 124 0 gusting 2 5.6
2019-Dec-11 23:16 168 1 gusting 2 5.6
2019-Dec-11 23:11 120 0 gusting 2 5.6
2019-Dec-11 23:01 121 5.6
2019-Dec-11 22:56 106 1 gusting 4 5.6
2019-Dec-11 22:46 121 2 gusting 4 5.6
2019-Dec-11 22:41 120 0 gusting 2 5.6
2019-Dec-11 22:36 128 2 gusting 2 5.6
2019-Dec-11 22:31 125 0 gusting 2 5.6
2019-Dec-11 22:26 125 0 gusting 2 5.6
2019-Dec-11 22:21 149 5.6
2019-Dec-11 22:11 173 5.6
2019-Dec-11 22:06 173 5.6
2019-Dec-11 21:51 125 1.1
2019-Dec-11 21:36 170 1 gusting 2 5.6
2019-Dec-11 21:31 173 5.6
2019-Dec-11 21:26 149 5.6
2019-Dec-11 21:21 127 0 gusting 4 5.6
2019-Dec-11 21:16 140 2 gusting 5 5.6
2019-Dec-11 21:11 162 5.6
2019-Dec-11 21:06 162 5.6
2019-Dec-11 21:01 162 5.6
2019-Dec-11 20:51 162 5.6
2019-Dec-11 20:46 162 1 gusting 2 5.6
2019-Dec-11 20:41 171 0 gusting 4 5.6
2019-Dec-11 20:21 123 2 gusting 6 5.6
2019-Dec-11 20:16 128 2 gusting 5 5.6
2019-Dec-11 20:11 122 4 gusting 5 5.6
2019-Dec-11 20:01 126 4 gusting 6 5.6
2019-Dec-11 19:56 115 6 gusting 13 5.6
2019-Dec-11 19:51 134 5.0
2019-Dec-11 19:46 135 0 gusting 2 5.0
2019-Dec-11 19:41 126 0 gusting 5 5.0
2019-Dec-11 19:36 133 1 gusting 5 5.0
2019-Dec-11 19:31 139 1 gusting 2 5.0
2019-Dec-11 19:26 142 1 gusting 2 5.0
2019-Dec-11 19:21 140 0 gusting 2 5.0
2019-Dec-11 19:16 142 5.0
2019-Dec-11 19:06 142 5.0
2019-Dec-11 18:51 131 5.0
2019-Dec-11 18:41 131 5.0
2019-Dec-11 18:36 131 5.0
2019-Dec-11 18:31 131 5.0
2019-Dec-11 18:26 131 5.0
2019-Dec-11 18:21 131 5.0
2019-Dec-11 18:01 131 4.4
2019-Dec-11 17:56 131 4.4
2019-Dec-11 17:51 132 4.4
2019-Dec-11 17:46 131 4.4
2019-Dec-11 17:41 131 4.4
2019-Dec-11 17:36 131 5.0
2019-Dec-11 17:31 132 5.0
2019-Dec-11 17:26 133 5.0
2019-Dec-11 17:21 132 4.4
2019-Dec-11 17:11 130 4.4
2019-Dec-11 17:01 130 4.4
2019-Dec-11 16:56 131 4.4
2019-Dec-11 16:51 145 4.4
2019-Dec-11 16:46 145 4.4
2019-Dec-11 16:41 144 4.4
2019-Dec-11 16:31 144 4.4
2019-Dec-11 16:21 144 4.4
2019-Dec-11 16:16 144 4.4
2019-Dec-11 16:11 144 4.4
2019-Dec-11 15:46 144 4.4
2019-Dec-11 15:41 144 5.0
2019-Dec-11 15:36 144 5.0
2019-Dec-11 15:31 138 5.0
2019-Dec-11 15:26 133 5.0
2019-Dec-11 15:16 133 5.0
2019-Dec-11 15:11 133 5.0
2019-Dec-11 15:06 133 0 gusting 2 5.0
2019-Dec-11 15:01 126 0 gusting 2 5.0
2019-Dec-11 14:56 122 1 gusting 2 5.0
2019-Dec-11 14:51 122 5.0
2019-Dec-11 14:41 119 1 gusting 5 5.0
2019-Dec-11 14:36 129 1 gusting 2 5.0
2019-Dec-11 14:31 146 5.0
2019-Dec-11 14:21 124 5.0
2019-Dec-11 14:16 121 0 gusting 2 5.0
2019-Dec-11 14:11 137 2 gusting 5 5.0
2019-Dec-11 13:51 126 5.0
2019-Dec-11 13:46 127 0 gusting 4 5.0
2019-Dec-11 13:41 111 0 gusting 4 5.0
2019-Dec-11 13:21 126 5.6
2019-Dec-11 13:16 164 5.6
2019-Dec-11 13:11 167 5.6
2019-Dec-11 13:06 172 5.6
2019-Dec-11 12:56 159 5.6
2019-Dec-11 12:51 163 1 gusting 2 5.6
2019-Dec-11 12:46 178 5.6
2019-Dec-11 12:41 178 5.6
2019-Dec-11 12:31 161 0 gusting 4 5.6
2019-Dec-11 12:26 168 5.6
2019-Dec-11 12:15 121 2 gusting 5 5.6
2019-Dec-11 12:11 126 4 gusting 5 5.6
2019-Dec-11 12:06 116 3 gusting 5 5.6
2019-Dec-11 12:01 123 4 gusting 6 5.6
2019-Dec-11 11:56 121 0 gusting 5 5.6
2019-Dec-11 11:46 156 5.6
2019-Dec-11 11:21 301 4.4
2019-Dec-11 11:16 301 4.4
2019-Dec-11 11:11 301 3.9
2019-Dec-11 11:06 301 3.9
2019-Dec-11 11:01 301 3.3
2019-Dec-11 10:56 301 3.3
2019-Dec-11 10:31 301 2.8
2019-Dec-11 10:26 301 2.8
2019-Dec-11 10:10 301 2.8
2019-Dec-11 10:06 301 2.8
2019-Dec-11 10:01 301 2.8
2019-Dec-11 09:46 301 2.8
2019-Dec-11 09:41 301 2.2
2019-Dec-11 09:26 301 1.7
2019-Dec-11 09:21 301 1.7
2019-Dec-11 09:16 301 1.7
2019-Dec-11 09:01 301 1.1
2019-Dec-11 08:56 301 1.1
2019-Dec-11 08:51 301 1.1
2019-Dec-11 08:46 301 1.1
2019-Dec-11 08:36 301 1.1
2019-Dec-11 08:31 301 1.1
2019-Dec-11 08:11 301 1.1
2019-Dec-11 08:06 301 1.1
2019-Dec-11 08:01 301 1.1
2019-Dec-11 07:46 301 0.6
2019-Dec-11 07:35 301 0.6
2019-Dec-11 07:31 301 0.6
2019-Dec-11 07:26 301 0.6
2019-Dec-11 07:16 301 0.6
2019-Dec-11 07:05 301 0.6
2019-Dec-11 07:01 301 0.6
2019-Dec-11 06:50 199 0.6
2019-Dec-11 06:46 197 0.6
2019-Dec-11 06:35 197 0.6
2019-Dec-11 06:31 197 -0.0
2019-Dec-11 06:26 197 -0.0
2019-Dec-11 06:21 197 -0.0
2019-Dec-11 06:11 197 -0.0
2019-Dec-11 06:06 197 -0.6
2019-Dec-11 06:01 197 -0.6
2019-Dec-11 05:56 197 -0.6
2019-Dec-11 05:45 197 -0.6
2019-Dec-11 05:41 197 -0.6
2019-Dec-11 05:36 197 -0.6
2019-Dec-11 05:31 197 -0.6
2019-Dec-11 05:16 191 -0.0
2019-Dec-11 05:10 191 -0.0
2019-Dec-11 04:50 191 -0.0
2019-Dec-11 04:26 191 -0.0
2019-Dec-11 04:20 191 -0.0
2019-Dec-11 04:10 191 -0.0
2019-Dec-11 04:00 191 -0.6
2019-Dec-11 03:50 191 -0.6
2019-Dec-11 03:41 191 -0.6
2019-Dec-11 03:31 191 -0.6
2019-Dec-11 03:20 191 -1.1
2019-Dec-11 03:05 191 -1.1
2019-Dec-11 02:50 191 -1.7
2019-Dec-11 02:40 191 -0.6
2019-Dec-11 02:30 191 -0.6
2019-Dec-11 02:25 191 -0.6
2019-Dec-11 02:15 191 -0.6
2019-Dec-11 02:11 191 -0.6
2019-Dec-11 02:00 191 -0.6
2019-Dec-11 01:50 191 -0.6
2019-Dec-11 01:45 191 -0.6
2019-Dec-11 01:40 191 -0.6
2019-Dec-11 01:35 191 -0.0
2019-Dec-11 01:30 191 -0.0
2019-Dec-11 01:25 191 -0.0
2019-Dec-11 01:15 191 -0.0
2019-Dec-11 01:01 191 -0.0
2019-Dec-11 00:50 191 0.6
2019-Dec-11 00:45 191 -0.0
2019-Dec-11 00:31 191 -0.0
2019-Dec-11 00:20 191 -0.0
2019-Dec-11 00:10 191 -0.0
2019-Dec-11 00:05 191 -0.0